Mijn Webcam Meer informatie Mijn Webcam


webcam facing north-east Meer informatie webcam facing north-east


Regen radar Meer informatie rain snow radar


Bezoek onze andere website:

Template documentation
and downloads

And another site


CBI



METAR rapporten vliegvelden

   
EHGG - Groningen/Eelde
Gewijzigd: 17-12-2017 21:55
Heavy Drizzle, Regen, Bewolking  
Heavy Drizzle, Regen, Bewolking  
   Wind: Zuiden 5,7 m/s
Wind: Zuiden 5,7 m/s
Temperatuur: 3°C
Voelt als: -2°C
Dauwpunt: 2°C
Vochtigheid: 93%
Barometer: 1018 hPa
Bewolking: Bewolking
Zicht: More then 10 km
Bewolking: Licht bewolkt 243,8 m,
Grotendeels bewolkt 304,8 m,
Bewolking 762 m
EHGG 172055Z AUTO 19011KT 160V230 9999 +DZRA FEW008 BKN010 OVC025 03/02 Q1018 BECMG 7000 -RADZ SCT020 BKN035
EHMA - Schiermonnikoog
Gewijzigd: 17-12-2017 21:55
Light Showers, Regen, Grotendeels bewolkt  
Light Showers, Regen, Grotendeels bewolkt  
   Wind: Zuiden 15,4 m/s
Wind: Zuiden 15,4 m/s
Temperatuur: 4°C
Voelt als: -3°C
Dauwpunt: 2°C
Vochtigheid: 87%
Barometer: 1015 hPa
Bewolking: Grotendeels bewolkt
Zicht: 2 km
Bewolking: Licht bewolkt 274,3 m,
Licht bewolkt 457,2 m,
Gedeeltelijk bewolkt 548,6 m,
Grotendeels bewolkt 670,6 m
EHMA 172055Z AUTO 19030KT 2400 -SHRA FEW009 FEW015CB SCT018 BKN022 04/02 Q1015 W///H///
EHMG - Terschelling
Gewijzigd: 17-12-2017 21:55
Motregen, Grotendeels bewolkt  
Motregen, Grotendeels bewolkt  
   Wind: ZZW 19 m/s
Wind: ZZW 19 m/s
Temperatuur: 6°C
Voelt als: -1°C
Dauwpunt: 6°C
Vochtigheid: 100%
Barometer: 1013 hPa
Bewolking: Grotendeels bewolkt
Zicht: 4 km
Bewolking: Licht bewolkt 91,4 m,
Gedeeltelijk bewolkt 121,9 m,
Grotendeels bewolkt 182,9 m,
Licht bewolkt 457,2 m
EHMG 172055Z AUTO 21037KT 3700 DZ FEW003 SCT004 BKN006 FEW015CB 06/06 Q1013 W///H///
EHVL - Vlieland
Gewijzigd: 17-12-2017 21:55
Motregen, Regen, Grotendeels bewolkt  
Motregen, Regen, Grotendeels bewolkt  
   Wind: ZZW 12,9 m/s
Wind: ZZW 12,9 m/s
Temperatuur: 5°C
Voelt als: -1°C
Dauwpunt: 4°C
Vochtigheid: 93%
Barometer: 1014 hPa
Bewolking: Grotendeels bewolkt
Zicht: 4 km
Bewolking: Gedeeltelijk bewolkt 121,9 m,
Grotendeels bewolkt 152,4 m,
Licht bewolkt 457,2 m
EHVL 172055Z AUTO 20025KT 4300 DZRA SCT004 BKN005 FEW015CB 05/04 Q1014 REDZ YLO
ETWM - Meppen, Germany
Gewijzigd: 17-12-2017 21:20
  
  
   Wind: ZZW 4,6 m/s
Wind: ZZW 4,6 m/s
Temperatuur: 3°C
Voelt als: -1°C
Dauwpunt: 2°C
Vochtigheid: 93%
Barometer: 1020 hPa
Zicht: 6 km
ETWM 172020Z AUTO 20009KT 6000 // ////// 03/02 Q1020 ///
 

Script ontwikkeld door  Saratoga-weather.org Aangepast voor de template door  Weerstation Leuven

U vindt ons ook hier:

Het Weer Aktueel

UK Metoffice

European Weather Network

WeatherCloud

Weather Underground

Benelux Weer Netwerk

AWEKAS

WeatherlinkIP

HAMweather, WeatherForYou, PWS Weather

Apparatuur in gebruik:

Weerstation
Davis VP2 Plus

Weerprogramma
Cumulus

Weercomputer
ASUS Eee Box B202

Webleverancier
Antagonist

Davis VP2 Plus

Cumulus

ASUS Eee Box B202

Antagonist